sensor_id;sensor_type;location;lat;lon;timestamp;pressure;altitude;pressure_sealevel;temperature;humidity
70229;BME280;57617;51.988;5.854;2023-03-09T00:02:07;98719.56;;;4.69;70.55
70229;BME280;57617;51.988;5.854;2023-03-09T00:04:37;98716.03;;;4.63;70.87
70229;BME280;57617;51.988;5.854;2023-03-09T00:07:03;98697.72;;;4.60;70.59
70229;BME280;57617;51.988;5.854;2023-03-09T00:09:28;98699.09;;;4.63;70.36
70229;BME280;57617;51.988;5.854;2023-03-09T00:11:54;98705.53;;;4.62;70.32
70229;BME280;57617;51.988;5.854;2023-03-09T00:14:20;98702.84;;;4.62;70.59
70229;BME280;57617;51.988;5.854;2023-03-09T00:16:50;98690.44;;;4.56;70.50
70229;BME280;57617;51.988;5.854;2023-03-09T00:19:15;98681.53;;;4.55;70.93
70229;BME280;57617;51.988;5.854;2023-03-09T00:21:47;98677.00;;;4.56;70.92
70229;BME280;57617;51.988;5.854;2023-03-09T00:24:19;98689.56;;;4.50;71.07
70229;BME280;57617;51.988;5.854;2023-03-09T00:26:49;98702.16;;;4.50;70.89
70229;BME280;57617;51.988;5.854;2023-03-09T00:29:15;98716.97;;;4.52;70.68
70229;BME280;57617;51.988;5.854;2023-03-09T00:31:41;98712.97;;;4.55;70.64
70229;BME280;57617;51.988;5.854;2023-03-09T00:34:08;98716.72;;;4.54;70.88
70229;BME280;57617;51.988;5.854;2023-03-09T00:36:34;98714.63;;;4.56;70.75
70229;BME280;57617;51.988;5.854;2023-03-09T00:38:59;98707.34;;;4.56;70.93
70229;BME280;57617;51.988;5.854;2023-03-09T00:41:27;98709.78;;;4.58;70.53
70229;BME280;57617;51.988;5.854;2023-03-09T00:43:53;98717.31;;;4.56;70.61
70229;BME280;57617;51.988;5.854;2023-03-09T00:46:19;98737.75;;;4.57;70.65
70229;BME280;57617;51.988;5.854;2023-03-09T00:48:44;98736.19;;;4.61;70.86
70229;BME280;57617;51.988;5.854;2023-03-09T00:51:11;98724.59;;;4.60;70.40
70229;BME280;57617;51.988;5.854;2023-03-09T00:53:37;98729.97;;;4.60;70.29
70229;BME280;57617;51.988;5.854;2023-03-09T00:56:05;98747.19;;;4.59;70.48
70229;BME280;57617;51.988;5.854;2023-03-09T00:58:31;98743.66;;;4.59;70.53
70229;BME280;57617;51.988;5.854;2023-03-09T01:00:57;98739.06;;;4.54;70.84
70229;BME280;57617;51.988;5.854;2023-03-09T01:03:22;98742.81;;;4.53;70.92
70229;BME280;57617;51.988;5.854;2023-03-09T01:05:48;98751.13;;;4.52;70.94
70229;BME280;57617;51.988;5.854;2023-03-09T01:08:13;98739.78;;;4.50;70.76
70229;BME280;57617;51.988;5.854;2023-03-09T01:10:39;98742.81;;;4.53;71.17
70229;BME280;57617;51.988;5.854;2023-03-09T01:13:04;98731.44;;;4.46;71.00
70229;BME280;57617;51.988;5.854;2023-03-09T01:15:30;98745.44;;;4.48;70.90
70229;BME280;57617;51.988;5.854;2023-03-09T01:17:55;98751.84;;;4.47;70.98
70229;BME280;57617;51.988;5.854;2023-03-09T01:20:21;98744.63;;;4.48;71.20
70229;BME280;57617;51.988;5.854;2023-03-09T01:22:47;98750.53;;;4.50;70.83
70229;BME280;57617;51.988;5.854;2023-03-09T01:25:12;98751.84;;;4.47;70.42
70229;BME280;57617;51.988;5.854;2023-03-09T01:27:38;98759.69;;;4.49;70.93
70229;BME280;57617;51.988;5.854;2023-03-09T01:30:03;98770.44;;;4.49;70.60
70229;BME280;57617;51.988;5.854;2023-03-09T01:32:29;98767.50;;;4.50;70.58
70229;BME280;57617;51.988;5.854;2023-03-09T01:34:54;98793.88;;;4.53;70.54
70229;BME280;57617;51.988;5.854;2023-03-09T01:37:20;98806.81;;;4.56;70.74
70229;BME280;57617;51.988;5.854;2023-03-09T01:39:45;98804.13;;;4.56;70.79
70229;BME280;57617;51.988;5.854;2023-03-09T01:42:10;98779.38;;;4.54;70.52
70229;BME280;57617;51.988;5.854;2023-03-09T01:44:36;98757.03;;;4.54;70.77
70229;BME280;57617;51.988;5.854;2023-03-09T01:47:01;98761.94;;;4.57;70.96
70229;BME280;57617;51.988;5.854;2023-03-09T01:52:04;98801.44;;;4.56;70.88
70229;BME280;57617;51.988;5.854;2023-03-09T01:54:36;98798.97;;;4.55;70.81
70229;BME280;57617;51.988;5.854;2023-03-09T01:57:14;98803.56;;;4.54;70.64
70229;BME280;57617;51.988;5.854;2023-03-09T01:59:43;98813.56;;;4.59;70.83
70229;BME280;57617;51.988;5.854;2023-03-09T02:02:10;98805.72;;;4.57;70.64
70229;BME280;57617;51.988;5.854;2023-03-09T02:04:46;98807.38;;;4.58;70.92
70229;BME280;57617;51.988;5.854;2023-03-09T02:07:13;98819.13;;;4.52;70.52
70229;BME280;57617;51.988;5.854;2023-03-09T02:09:44;98828.00;;;4.53;70.52
70229;BME280;57617;51.988;5.854;2023-03-09T02:12:13;98818.63;;;4.55;70.80
70229;BME280;57617;51.988;5.854;2023-03-09T02:14:39;98823.44;;;4.53;70.50
70229;BME280;57617;51.988;5.854;2023-03-09T02:17:04;98816.75;;;4.56;70.68
70229;BME280;57617;51.988;5.854;2023-03-09T02:20:02;98826.19;;;4.58;70.73
70229;BME280;57617;51.988;5.854;2023-03-09T02:22:33;98824.00;;;4.55;70.67
70229;BME280;57617;51.988;5.854;2023-03-09T02:27:43;98828.63;;;4.60;70.78
70229;BME280;57617;51.988;5.854;2023-03-09T02:30:09;98812.19;;;4.56;70.69
70229;BME280;57617;51.988;5.854;2023-03-09T02:32:35;98807.38;;;4.58;70.83
70229;BME280;57617;51.988;5.854;2023-03-09T02:35:00;98799.25;;;4.53;70.78
70229;BME280;57617;51.988;5.854;2023-03-09T02:37:35;98813.25;;;4.55;70.80
70229;BME280;57617;51.988;5.854;2023-03-09T02:43:04;98822.38;;;4.54;70.65
70229;BME280;57617;51.988;5.854;2023-03-09T02:45:30;98837.50;;;4.60;70.83
70229;BME280;57617;51.988;5.854;2023-03-09T02:47:57;98856.81;;;4.57;70.64
70229;BME280;57617;51.988;5.854;2023-03-09T02:50:22;98863.56;;;4.60;70.90
70229;BME280;57617;51.988;5.854;2023-03-09T02:52:48;98859.00;;;4.60;70.65
70229;BME280;57617;51.988;5.854;2023-03-09T02:55:14;98862.19;;;4.57;70.52
70229;BME280;57617;51.988;5.854;2023-03-09T02:57:40;98876.75;;;4.61;70.51
70229;BME280;57617;51.988;5.854;2023-03-09T03:00:11;98854.41;;;4.56;70.60
70229;BME280;57617;51.988;5.854;2023-03-09T03:02:37;98874.66;;;4.63;70.92
70229;BME280;57617;51.988;5.854;2023-03-09T03:05:04;98863.56;;;4.60;70.46
70229;BME280;57617;51.988;5.854;2023-03-09T03:07:30;98856.31;;;4.60;70.82
70229;BME280;57617;51.988;5.854;2023-03-09T03:09:55;98864.38;;;4.60;70.44
70229;BME280;57617;51.988;5.854;2023-03-09T03:12:21;98860.56;;;4.56;70.78
70229;BME280;57617;51.988;5.854;2023-03-09T03:14:46;98875.69;;;4.62;70.73
70229;BME280;57617;51.988;5.854;2023-03-09T03:17:11;98872.22;;;4.62;70.86
70229;BME280;57617;51.988;5.854;2023-03-09T03:19:37;98869.44;;;4.57;70.23
70229;BME280;57617;51.988;5.854;2023-03-09T03:22:03;98880.50;;;4.60;70.52
70229;BME280;57617;51.988;5.854;2023-03-09T03:24:29;98884.81;;;4.61;70.67
70229;BME280;57617;51.988;5.854;2023-03-09T03:26:54;98892.09;;;4.61;70.59
70229;BME280;57617;51.988;5.854;2023-03-09T03:29:19;98894.50;;;4.62;70.76
70229;BME280;57617;51.988;5.854;2023-03-09T03:31:45;98904.47;;;4.62;70.56
70229;BME280;57617;51.988;5.854;2023-03-09T03:34:10;98909.84;;;4.62;70.56
70229;BME280;57617;51.988;5.854;2023-03-09T03:36:36;98910.97;;;4.66;70.77
70229;BME280;57617;51.988;5.854;2023-03-09T03:39:01;98910.97;;;4.66;70.29
70229;BME280;57617;51.988;5.854;2023-03-09T03:41:28;98917.72;;;4.68;70.68
70229;BME280;57617;51.988;5.854;2023-03-09T03:43:53;98913.66;;;4.66;70.61
70229;BME280;57617;51.988;5.854;2023-03-09T03:46:18;98918.69;;;4.62;70.19
70229;BME280;57617;51.988;5.854;2023-03-09T03:48:44;98932.97;;;4.63;70.80
70229;BME280;57617;51.988;5.854;2023-03-09T03:51:09;98922.78;;;4.65;70.27
70229;BME280;57617;51.988;5.854;2023-03-09T03:53:35;98934.66;;;4.69;70.32
70229;BME280;57617;51.988;5.854;2023-03-09T03:56:00;98933.34;;;4.71;70.27
70229;BME280;57617;51.988;5.854;2023-03-09T03:58:26;98925.59;;;4.75;70.49
70229;BME280;57617;51.988;5.854;2023-03-09T04:00:51;98930.97;;;4.75;70.47
70229;BME280;57617;51.988;5.854;2023-03-09T04:03:17;98938.72;;;4.71;70.36
70229;BME280;57617;51.988;5.854;2023-03-09T04:05:42;98945.41;;;4.69;70.59
70229;BME280;57617;51.988;5.854;2023-03-09T04:08:07;98949.72;;;4.70;70.19
70229;BME280;57617;51.988;5.854;2023-03-09T04:10:33;98950.00;;;4.68;70.43
70229;BME280;57617;51.988;5.854;2023-03-09T04:12:59;98955.09;;;4.70;70.28
70229;BME280;57617;51.988;5.854;2023-03-09T04:15:24;98942.16;;;4.67;70.00
70229;BME280;57617;51.988;5.854;2023-03-09T04:17:50;98956.41;;;4.67;70.25
70229;BME280;57617;51.988;5.854;2023-03-09T04:20:16;98957.00;;;4.69;70.11
70229;BME280;57617;51.988;5.854;2023-03-09T04:22:41;98954.00;;;4.66;70.51
70229;BME280;57617;51.988;5.854;2023-03-09T04:25:07;98961.78;;;4.67;70.10
70229;BME280;57617;51.988;5.854;2023-03-09T04:27:33;98966.94;;;4.69;70.68
70229;BME280;57617;51.988;5.854;2023-03-09T04:29:58;98978.56;;;4.74;70.27
70229;BME280;57617;51.988;5.854;2023-03-09T04:32:23;98982.88;;;4.75;70.25
70229;BME280;57617;51.988;5.854;2023-03-09T04:34:48;98985.00;;;4.73;70.34
70229;BME280;57617;51.988;5.854;2023-03-09T04:37:14;98988.44;;;4.69;70.03
70229;BME280;57617;51.988;5.854;2023-03-09T04:39:39;98994.88;;;4.68;70.56
70229;BME280;57617;51.988;5.854;2023-03-09T04:42:04;98995.44;;;4.70;70.27
70229;BME280;57617;51.988;5.854;2023-03-09T04:44:30;98996.50;;;4.69;70.75
70229;BME280;57617;51.988;5.854;2023-03-09T04:46:55;98997.31;;;4.69;70.54
70229;BME280;57617;51.988;5.854;2023-03-09T04:49:20;99008.31;;;4.68;70.12
70229;BME280;57617;51.988;5.854;2023-03-09T04:51:47;99022.31;;;4.70;70.61
70229;BME280;57617;51.988;5.854;2023-03-09T04:54:12;99031.78;;;4.72;70.31
70229;BME280;57617;51.988;5.854;2023-03-09T04:56:37;99030.69;;;4.73;70.33
70229;BME280;57617;51.988;5.854;2023-03-09T04:59:03;99035.03;;;4.74;70.36
70229;BME280;57617;51.988;5.854;2023-03-09T05:01:28;99037.97;;;4.73;71.10
70229;BME280;57617;51.988;5.854;2023-03-09T05:03:53;99033.66;;;4.72;70.49
70229;BME280;57617;51.988;5.854;2023-03-09T05:06:19;99044.66;;;4.70;70.05
70229;BME280;57617;51.988;5.854;2023-03-09T05:08:44;99047.09;;;4.72;70.64
70229;BME280;57617;51.988;5.854;2023-03-09T05:11:10;99049.28;;;4.75;70.55
70229;BME280;57617;51.988;5.854;2023-03-09T05:13:35;99057.94;;;4.77;70.40
70229;BME280;57617;51.988;5.854;2023-03-09T05:16:04;99060.63;;;4.77;70.61
70229;BME280;57617;51.988;5.854;2023-03-09T05:18:32;99055.25;;;4.77;70.48
70229;BME280;57617;51.988;5.854;2023-03-09T05:20:58;99064.69;;;4.79;70.18
70229;BME280;57617;51.988;5.854;2023-03-09T05:23:23;99064.69;;;4.79;70.39
70229;BME280;57617;51.988;5.854;2023-03-09T05:25:56;99048.81;;;4.78;70.44
70229;BME280;57617;51.988;5.854;2023-03-09T05:28:22;99040.97;;;4.76;70.34
70229;BME280;57617;51.988;5.854;2023-03-09T05:30:49;99035.59;;;4.76;70.58
70229;BME280;57617;51.988;5.854;2023-03-09T05:33:15;99022.16;;;4.76;70.13
70229;BME280;57617;51.988;5.854;2023-03-09T05:35:40;99029.41;;;4.76;70.38
70229;BME280;57617;51.988;5.854;2023-03-09T05:38:06;99026.47;;;4.77;70.32
70229;BME280;57617;51.988;5.854;2023-03-09T05:40:31;99030.78;;;4.78;70.33
70229;BME280;57617;51.988;5.854;2023-03-09T05:42:56;99048.81;;;4.78;70.41
70229;BME280;57617;51.988;5.854;2023-03-09T05:45:21;99052.56;;;4.77;70.36
70229;BME280;57617;51.988;5.854;2023-03-09T05:47:47;99057.13;;;4.76;70.54
70229;BME280;57617;51.988;5.854;2023-03-09T05:50:12;99071.13;;;4.78;70.24
70229;BME280;57617;51.988;5.854;2023-03-09T05:52:37;99071.94;;;4.79;70.54
70229;BME280;57617;51.988;5.854;2023-03-09T05:55:03;99060.88;;;4.75;70.06
70229;BME280;57617;51.988;5.854;2023-03-09T05:57:28;99066.47;;;4.74;70.21
70229;BME280;57617;51.988;5.854;2023-03-09T05:59:53;99072.94;;;4.73;70.35
70229;BME280;57617;51.988;5.854;2023-03-09T06:02:19;99062.66;;;4.70;70.47
70229;BME280;57617;51.988;5.854;2023-03-09T06:04:49;99073.72;;;4.73;70.21
70229;BME280;57617;51.988;5.854;2023-03-09T06:07:14;99060.88;;;4.75;69.92
70229;BME280;57617;51.988;5.854;2023-03-09T06:09:39;99058.72;;;4.77;70.30
70229;BME280;57617;51.988;5.854;2023-03-09T06:12:05;99062.50;;;4.76;70.02
70229;BME280;57617;51.988;5.854;2023-03-09T06:14:31;99062.25;;;4.78;70.02
70229;BME280;57617;51.988;5.854;2023-03-09T06:16:56;99067.31;;;4.74;70.19
70229;BME280;57617;51.988;5.854;2023-03-09T06:19:23;99060.22;;;4.68;70.20
70229;BME280;57617;51.988;5.854;2023-03-09T06:21:48;99081.31;;;4.76;70.35
70229;BME280;57617;51.988;5.854;2023-03-09T06:24:14;99088.91;;;4.79;70.27
70229;BME280;57617;51.988;5.854;2023-03-09T06:26:39;99086.53;;;4.83;70.26
70229;BME280;57617;51.988;5.854;2023-03-09T06:29:04;99094.84;;;4.81;70.24
70229;BME280;57617;51.988;5.854;2023-03-09T06:31:29;99096.22;;;4.84;70.47
70229;BME280;57617;51.988;5.854;2023-03-09T06:33:57;99085.16;;;4.80;70.46
70229;BME280;57617;51.988;5.854;2023-03-09T06:36:22;99092.38;;;4.80;70.22
70229;BME280;57617;51.988;5.854;2023-03-09T06:38:47;99108.84;;;4.83;70.39
70229;BME280;57617;51.988;5.854;2023-03-09T06:41:13;99108.84;;;4.83;70.32
70229;BME280;57617;51.988;5.854;2023-03-09T06:43:39;99121.50;;;4.83;70.38
70229;BME280;57617;51.988;5.854;2023-03-09T06:46:07;99132.25;;;4.83;70.29
70229;BME280;57617;51.988;5.854;2023-03-09T06:48:32;99138.44;;;4.83;70.26
70229;BME280;57617;51.988;5.854;2023-03-09T06:50:58;99142.78;;;4.84;70.50
70229;BME280;57617;51.988;5.854;2023-03-09T06:53:23;99145.19;;;4.86;70.06
70229;BME280;57617;51.988;5.854;2023-03-09T06:55:48;99141.72;;;4.85;69.96
70229;BME280;57617;51.988;5.854;2023-03-09T06:58:13;99141.38;;;4.82;70.48
70229;BME280;57617;51.988;5.854;2023-03-09T07:00:39;99151.31;;;4.81;70.32
70229;BME280;57617;51.988;5.854;2023-03-09T07:03:07;99172.34;;;4.84;70.17
70229;BME280;57617;51.988;5.854;2023-03-09T07:05:37;99177.22;;;4.87;70.37
70229;BME280;57617;51.988;5.854;2023-03-09T07:08:02;99183.19;;;4.89;70.39
70229;BME280;57617;51.988;5.854;2023-03-09T07:10:27;99185.63;;;4.91;70.32
70229;BME280;57617;51.988;5.854;2023-03-09T07:12:52;99190.75;;;4.92;70.30
70229;BME280;57617;51.988;5.854;2023-03-09T07:15:18;99189.97;;;4.92;70.08
70229;BME280;57617;51.988;5.854;2023-03-09T07:17:43;99200.72;;;4.92;70.21
70229;BME280;57617;51.988;5.854;2023-03-09T07:20:10;99204.22;;;4.92;70.04
70229;BME280;57617;51.988;5.854;2023-03-09T07:22:35;99217.91;;;4.91;70.17
70229;BME280;57617;51.988;5.854;2023-03-09T07:25:01;99226.56;;;4.93;69.96
70229;BME280;57617;51.988;5.854;2023-03-09T07:27:27;99224.44;;;4.95;70.54
70229;BME280;57617;51.988;5.854;2023-03-09T07:29:52;99224.19;;;4.96;70.29
70229;BME280;57617;51.988;5.854;2023-03-09T07:32:17;99224.50;;;5.00;69.93
70229;BME280;57617;51.988;5.854;2023-03-09T07:34:43;99234.81;;;5.03;70.15
70229;BME280;57617;51.988;5.854;2023-03-09T07:37:08;99240.50;;;5.06;70.10
70229;BME280;57617;51.988;5.854;2023-03-09T07:39:33;99251.28;;;5.06;70.30
70229;BME280;57617;51.988;5.854;2023-03-09T07:42:00;99249.88;;;5.04;70.10
70229;BME280;57617;51.988;5.854;2023-03-09T07:44:27;99242.13;;;5.07;70.23
70229;BME280;57617;51.988;5.854;2023-03-09T07:46:52;99234.66;;;5.09;69.93
70229;BME280;57617;51.988;5.854;2023-03-09T07:49:17;99235.44;;;5.10;70.40
70229;BME280;57617;51.988;5.854;2023-03-09T07:51:43;99245.47;;;5.14;70.09
70229;BME280;57617;51.988;5.854;2023-03-09T07:54:09;99243.13;;;5.18;70.21
70229;BME280;57617;51.988;5.854;2023-03-09T07:56:35;99243.59;;;5.15;69.78
70229;BME280;57617;51.988;5.854;2023-03-09T07:59:00;99242.53;;;5.16;70.09
70229;BME280;57617;51.988;5.854;2023-03-09T08:01:26;99251.59;;;5.26;69.92
70229;BME280;57617;51.988;5.854;2023-03-09T08:03:52;99235.84;;;5.18;69.86
70229;BME280;57617;51.988;5.854;2023-03-09T08:06:18;99247.03;;;5.27;69.98
70229;BME280;57617;51.988;5.854;2023-03-09T08:08:44;99268.31;;;5.28;69.63
70229;BME280;57617;51.988;5.854;2023-03-09T08:11:11;99277.13;;;5.24;69.10
70229;BME280;57617;51.988;5.854;2023-03-09T08:13:36;99292.69;;;5.22;70.07
70229;BME280;57617;51.988;5.854;2023-03-09T08:16:04;99291.38;;;5.24;69.79
70229;BME280;57617;51.988;5.854;2023-03-09T08:18:30;99290.44;;;5.30;70.29
70229;BME280;57617;51.988;5.854;2023-03-09T08:21:06;99285.63;;;5.32;69.99
70229;BME280;57617;51.988;5.854;2023-03-09T08:23:35;99274.59;;;5.34;70.14
70229;BME280;57617;51.988;5.854;2023-03-09T08:26:03;99270.38;;;5.38;70.04
70229;BME280;57617;51.988;5.854;2023-03-09T08:28:29;99282.53;;;5.40;69.93
70229;BME280;57617;51.988;5.854;2023-03-09T08:30:55;99284.47;;;5.45;69.93
70229;BME280;57617;51.988;5.854;2023-03-09T08:33:20;99290.19;;;5.48;69.89
70229;BME280;57617;51.988;5.854;2023-03-09T08:35:45;99294.03;;;5.52;69.86
70229;BME280;57617;51.988;5.854;2023-03-09T08:38:11;99300.88;;;5.60;69.91
70229;BME280;57617;51.988;5.854;2023-03-09T08:40:37;99293.13;;;5.63;70.05
70229;BME280;57617;51.988;5.854;2023-03-09T08:43:03;99302.50;;;5.61;69.64
70229;BME280;57617;51.988;5.854;2023-03-09T08:45:28;99321.13;;;5.62;69.93
70229;BME280;57617;51.988;5.854;2023-03-09T08:47:53;99321.19;;;5.67;70.07
70229;BME280;57617;51.988;5.854;2023-03-09T08:50:19;99325.28;;;5.70;69.63
70229;BME280;57617;51.988;5.854;2023-03-09T08:52:44;99300.19;;;5.69;69.75
70229;BME280;57617;51.988;5.854;2023-03-09T08:55:10;99288.88;;;5.67;70.15
70229;BME280;57617;51.988;5.854;2023-03-09T08:57:36;99323.47;;;5.75;69.72
70229;BME280;57617;51.988;5.854;2023-03-09T09:00:03;99329.44;;;5.77;69.74
70229;BME280;57617;51.988;5.854;2023-03-09T09:02:29;99334.59;;;5.79;69.53
70229;BME280;57617;51.988;5.854;2023-03-09T09:04:54;99344.63;;;5.83;69.48
70229;BME280;57617;51.988;5.854;2023-03-09T09:07:19;99352.81;;;5.88;69.86
70229;BME280;57617;51.988;5.854;2023-03-09T09:09:45;99365.22;;;5.89;69.23
70229;BME280;57617;51.988;5.854;2023-03-09T09:12:11;99361.44;;;5.90;69.21
70229;BME280;57617;51.988;5.854;2023-03-09T09:14:37;99355.81;;;5.92;69.02
70229;BME280;57617;51.988;5.854;2023-03-09T09:17:06;99345.28;;;5.90;69.21
70229;BME280;57617;51.988;5.854;2023-03-09T09:19:34;99348.56;;;5.92;69.36
70229;BME280;57617;51.988;5.854;2023-03-09T09:21:59;99347.00;;;5.96;69.18
70229;BME280;57617;51.988;5.854;2023-03-09T09:24:26;99337.94;;;6.02;69.64
70229;BME280;57617;51.988;5.854;2023-03-09T09:26:54;99349.28;;;6.04;70.02
70229;BME280;57617;51.988;5.854;2023-03-09T09:29:20;99342.81;;;6.05;69.79
70229;BME280;57617;51.988;5.854;2023-03-09T09:31:47;99347.41;;;6.05;69.34
70229;BME280;57617;51.988;5.854;2023-03-09T09:34:13;99351.13;;;6.04;69.97
70229;BME280;57617;51.988;5.854;2023-03-09T09:36:39;99345.19;;;6.02;70.03
70229;BME280;57617;51.988;5.854;2023-03-09T09:39:04;99351.13;;;6.04;69.58
70229;BME280;57617;51.988;5.854;2023-03-09T09:41:40;99370.00;;;6.04;70.19
70229;BME280;57617;51.988;5.854;2023-03-09T09:44:12;99351.97;;;5.88;69.80
70229;BME280;57617;51.988;5.854;2023-03-09T09:46:40;99390.00;;;6.08;69.48
70229;BME280;57617;51.988;5.854;2023-03-09T09:49:05;99377.28;;;6.03;70.18
70229;BME280;57617;51.988;5.854;2023-03-09T09:56:46;99390.91;;;6.13;69.66
70229;BME280;57617;51.988;5.854;2023-03-09T09:59:18;99373.69;;;6.14;69.66
70229;BME280;57617;51.988;5.854;2023-03-09T10:01:51;99374.81;;;6.18;69.85
70229;BME280;57617;51.988;5.854;2023-03-09T10:04:25;99374.81;;;6.18;69.38
70229;BME280;57617;51.988;5.854;2023-03-09T10:06:55;99379.47;;;6.23;69.79
70229;BME280;57617;51.988;5.854;2023-03-09T10:09:28;99378.16;;;6.25;69.83
70229;BME280;57617;51.988;5.854;2023-03-09T10:12:04;99378.22;;;6.30;69.31
70229;BME280;57617;51.988;5.854;2023-03-09T10:14:39;99390.63;;;6.31;69.78
70229;BME280;57617;51.988;5.854;2023-03-09T10:17:14;99400.69;;;6.36;69.13
70229;BME280;57617;51.988;5.854;2023-03-09T10:19:42;99397.16;;;6.35;69.84
70229;BME280;57617;51.988;5.854;2023-03-09T10:30:19;99396.81;;;6.48;69.56
70229;BME280;57617;51.988;5.854;2023-03-09T10:32:51;99404.41;;;6.51;69.12
70229;BME280;57617;51.988;5.854;2023-03-09T10:35:40;99404.47;;;6.56;69.59
70229;BME280;57617;51.988;5.854;2023-03-09T10:38:16;99396.81;;;6.48;68.59
70229;BME280;57617;51.988;5.854;2023-03-09T10:40:44;99398.28;;;6.56;69.17
70229;BME280;57617;51.988;5.854;2023-03-09T10:45:54;99393.06;;;6.49;69.15
70229;BME280;57617;51.988;5.854;2023-03-09T10:48:22;99390.91;;;6.51;69.47
70229;BME280;57617;51.988;5.854;2023-03-09T10:51:05;99405.84;;;6.59;69.20
70229;BME280;57617;51.988;5.854;2023-03-09T10:53:41;99415.56;;;6.60;69.45
70229;BME280;57617;51.988;5.854;2023-03-09T10:58:37;99408.06;;;6.62;68.81
70229;BME280;57617;51.988;5.854;2023-03-09T11:01:20;99406.69;;;6.59;69.12
70229;BME280;57617;51.988;5.854;2023-03-09T11:03:46;99404.00;;;6.59;69.28
70229;BME280;57617;51.988;5.854;2023-03-09T11:08:56;99387.03;;;6.64;69.03
70229;BME280;57617;51.988;5.854;2023-03-09T11:11:24;99398.97;;;6.68;69.04
70229;BME280;57617;51.988;5.854;2023-03-09T11:13:50;99374.72;;;6.51;69.22
70229;BME280;57617;51.988;5.854;2023-03-09T11:16:23;99386.31;;;6.68;69.46
70229;BME280;57617;51.988;5.854;2023-03-09T11:19:14;99390.06;;;6.67;68.63
70229;BME280;57617;51.988;5.854;2023-03-09T11:24:11;99401.59;;;6.63;69.39
70229;BME280;57617;51.988;5.854;2023-03-09T11:26:42;99413.53;;;6.67;69.16
70229;BME280;57617;51.988;5.854;2023-03-09T11:31:49;99413.16;;;6.58;69.17
70229;BME280;57617;51.988;5.854;2023-03-09T11:34:33;99412.63;;;6.61;69.07
70229;BME280;57617;51.988;5.854;2023-03-09T11:37:05;99419.66;;;6.62;69.23
70229;BME280;57617;51.988;5.854;2023-03-09T11:39:35;99426.44;;;6.65;68.71
70229;BME280;57617;51.988;5.854;2023-03-09T11:42:05;99421.78;;;6.60;68.77
70229;BME280;57617;51.988;5.854;2023-03-09T11:44:39;99421.31;;;6.63;69.17
70229;BME280;57617;51.988;5.854;2023-03-09T11:47:39;99418.69;;;6.68;68.79
70229;BME280;57617;51.988;5.854;2023-03-09T11:50:14;99419.47;;;6.69;69.12
70229;BME280;57617;51.988;5.854;2023-03-09T11:53:02;99415.16;;;6.68;69.38
70229;BME280;57617;51.988;5.854;2023-03-09T11:55:37;99421.88;;;6.65;69.14
70229;BME280;57617;51.988;5.854;2023-03-09T11:58:08;99409.38;;;6.59;69.18
70229;BME280;57617;51.988;5.854;2023-03-09T12:00:37;99405.06;;;6.58;69.20
70229;BME280;57617;51.988;5.854;2023-03-09T12:03:14;99406.44;;;6.61;69.80
70229;BME280;57617;51.988;5.854;2023-03-09T12:05:46;99410.75;;;6.62;69.48
70229;BME280;57617;51.988;5.854;2023-03-09T12:08:34;99398.06;;;6.62;69.77
70229;BME280;57617;51.988;5.854;2023-03-09T12:11:10;99399.72;;;6.63;69.96
70229;BME280;57617;51.988;5.854;2023-03-09T12:13:46;99393.75;;;6.61;69.76
70229;BME280;57617;51.988;5.854;2023-03-09T12:16:19;99398.84;;;6.58;69.49
70229;BME280;57617;51.988;5.854;2023-03-09T12:18:57;99385.59;;;6.56;69.00
70229;BME280;57617;51.988;5.854;2023-03-09T12:21:31;99394.44;;;6.52;69.48
70229;BME280;57617;51.988;5.854;2023-03-09T12:23:57;99392.22;;;6.49;69.18
70229;BME280;57617;51.988;5.854;2023-03-09T12:26:31;99389.47;;;6.44;69.57
70229;BME280;57617;51.988;5.854;2023-03-09T12:29:24;99395.50;;;6.51;70.00
70229;BME280;57617;51.988;5.854;2023-03-09T12:34:43;99395.94;;;6.43;69.83
70229;BME280;57617;51.988;5.854;2023-03-09T12:40:29;99385.59;;;6.35;69.34
70229;BME280;57617;51.988;5.854;2023-03-09T12:42:57;99385.81;;;6.33;70.28
70229;BME280;57617;51.988;5.854;2023-03-09T12:45:31;99377.97;;;6.32;69.82
70229;BME280;57617;51.988;5.854;2023-03-09T12:48:04;99379.59;;;6.33;69.87
70229;BME280;57617;51.988;5.854;2023-03-09T12:53:15;99382.81;;;6.30;69.46
70229;BME280;57617;51.988;5.854;2023-03-09T12:56:09;99375.22;;;6.27;69.71
70229;BME280;57617;51.988;5.854;2023-03-09T12:58:42;99371.88;;;6.20;69.70
70229;BME280;57617;51.988;5.854;2023-03-09T13:01:26;99364.03;;;6.18;69.68
70229;BME280;57617;51.988;5.854;2023-03-09T13:04:07;99368.03;;;6.16;69.89
70229;BME280;57617;51.988;5.854;2023-03-09T13:06:53;99369.66;;;6.17;69.97
70229;BME280;57617;51.988;5.854;2023-03-09T13:09:24;99368.03;;;6.16;70.07
70229;BME280;57617;51.988;5.854;2023-03-09T13:17:00;99367.81;;;6.17;70.26
70229;BME280;57617;51.988;5.854;2023-03-09T13:24:24;99329.09;;;6.07;70.18
70229;BME280;57617;51.988;5.854;2023-03-09T13:27:05;99336.56;;;6.21;69.98
70229;BME280;57617;51.988;5.854;2023-03-09T13:29:43;99330.56;;;6.14;70.05
70229;BME280;57617;51.988;5.854;2023-03-09T13:34:56;99269.34;;;5.93;70.01
70229;BME280;57617;51.988;5.854;2023-03-09T13:37:25;99303.34;;;6.16;70.35
70229;BME280;57617;51.988;5.854;2023-03-09T13:40:00;99300.41;;;6.17;70.56
70229;BME280;57617;51.988;5.854;2023-03-09T13:42:28;99299.34;;;6.18;70.55
70229;BME280;57617;51.988;5.854;2023-03-09T13:44:54;99298.22;;;6.14;70.38
70229;BME280;57617;51.988;5.854;2023-03-09T13:47:31;99295.59;;;6.19;70.49
70229;BME280;57617;51.988;5.854;2023-03-09T13:49:58;99294.19;;;6.17;70.96
70229;BME280;57617;51.988;5.854;2023-03-09T13:52:25;99289.81;;;6.11;70.56
70229;BME280;57617;51.988;5.854;2023-03-09T13:54:53;99298.38;;;6.08;71.25
70229;BME280;57617;51.988;5.854;2023-03-09T13:57:23;99299.28;;;6.13;71.00
70229;BME280;57617;51.988;5.854;2023-03-09T14:02:22;99285.94;;;6.23;71.17
70229;BME280;57617;51.988;5.854;2023-03-09T14:07:26;99283.78;;;6.25;71.24
70229;BME280;57617;51.988;5.854;2023-03-09T14:09:57;99275.94;;;6.24;71.21
70229;BME280;57617;51.988;5.854;2023-03-09T14:12:29;99271.88;;;6.21;70.85
70229;BME280;57617;51.988;5.854;2023-03-09T14:14:57;99273.53;;;6.22;70.70
70229;BME280;57617;51.988;5.854;2023-03-09T14:17:23;99288.06;;;6.21;71.17